This is the latest recevied weather packets stored in our database for station/object OE5XFR. If no packets are shown the sender has not sent any weather packets the latest 1 day(s).
| Time | Temp. | Humidity | Pressure | Rain* | Wind** | Luminosity | Snow |
|---|---|---|---|---|---|---|---|
| 1777978635 | 22.22° C | 21% | 1009 hPa | 0 mm | 0.45 m/s, 6° | - | - |
| 1777977915 | 22.22° C | 21% | 1009 hPa | 0 mm | 0.45 m/s, 6° | - | - |
| 1777977196 | 22.22° C | 21% | 1009 hPa | 0 mm | 1.79 m/s, 169° | - | - |
| 1777976476 | 22.22° C | 21% | 1009 hPa | 0 mm | 0.89 m/s, 161° | - | - |
| 1777975756 | 22.22° C | 22% | 1009 hPa | 0 mm | 1.34 m/s, 143° | - | - |
| 1777975035 | 21.67° C | 25% | 1009 hPa | 0 mm | 2.68 m/s, 273° | - | - |
| 1777974316 | 21.67° C | 25% | 1009 hPa | 0 mm | 3.13 m/s, 218° | - | - |
| 1777973596 | 21.67° C | 26% | 1009 hPa | 0 mm | 2.24 m/s, 218° | - | - |
| 1777972877 | 21.67° C | 25% | 1009 hPa | 0 mm | 3.13 m/s, 224° | - | - |
| 1777972155 | 21.11° C | 29% | 1010 hPa | 0 mm | 0.89 m/s, 259° | - | - |
| 1777971435 | 20.56° C | 32% | 1010 hPa | 0 mm | 3.13 m/s, 247° | - | - |
| 1777970715 | 20.56° C | 34% | 1010 hPa | 0 mm | 3.58 m/s, 249° | - | - |
| 1777969996 | 20° C | 37% | 1010 hPa | 0 mm | 4.47 m/s, 269° | - | - |
| 1777969275 | 20° C | 38% | 1010 hPa | 0 mm | 1.79 m/s, 285° | - | - |
| 1777968555 | 19.44° C | 40% | 1010 hPa | 0 mm | 2.68 m/s, 277° | - | - |
| 1777967836 | 18.89° C | 41% | 1010 hPa | 0 mm | 3.13 m/s, 258° | - | - |
| 1777967116 | 18.89° C | 41% | 1010 hPa | 0 mm | 3.13 m/s, 258° | - | - |
| 1777966394 | 17.78° C | 46% | 1010 hPa | 0 mm | 3.13 m/s, 249° | - | - |
| 1777965675 | 17.22° C | 46% | 1010 hPa | 0 mm | 2.68 m/s, 229° | - | - |
| 1777964958 | 17.22° C | 47% | 1010 hPa | 0 mm | 3.58 m/s, 260° | - | - |
| 1777964235 | 16.11° C | 53% | 1010 hPa | 0 mm | 1.79 m/s, 270° | - | - |
| 1777963515 | 16.11° C | 53% | 1010 hPa | 0 mm | 1.79 m/s, 270° | - | - |
| 1777962795 | 15.56° C | 56% | 1010 hPa | 0 mm | 0.89 m/s, 226° | - | - |
| 1777962075 | 14.44° C | 59% | 1010 hPa | 0 mm | 1.79 m/s, 242° | - | - |
| 1777961354 | 13.33° C | 64% | 1010 hPa | 0 mm | 1.79 m/s, 222° | - | - |
* Rain latest hour (hover to see other rain measurements)
** Current wind speed in m/s (hover to see current wind gust speed)